Time;durP1;ratioP1;P1;durP2;ratioP2;P2;SDS_P1;SDS_P2;PMS_P1;PMS_P2;Temp;Humidity;BMP_temperature;BMP_pressure;BME280_temperature;BME280_humidity;BME280_pressure;Samples;Min_cycle;Max_cycle;Signal;HPM_P1;HPM_P2
2021/08/16 00:02:03;;;;;;;13.40;9.03;;;18.60;99.90;;;;;;4998702;28;20987;-58
2021/08/16 00:04:30;;;;;;;12.00;8.40;;;18.60;99.90;;;;;;4999473;28;20460;-58
2021/08/16 00:06:57;;;;;;;12.67;7.50;;;18.50;99.90;;;;;;4999051;28;20857;-58
2021/08/16 00:09:24;;;;;;;11.90;7.60;;;18.40;99.90;;;;;;4999183;28;20515;-57
2021/08/16 00:11:51;;;;;;;10.10;6.90;;;18.50;99.90;;;;;;4998673;28;20523;-58
2021/08/16 00:14:19;;;;;;;12.70;8.03;;;18.50;99.90;;;;;;4999353;28;20539;-58
2021/08/16 00:16:46;;;;;;;8.37;7.03;;;18.60;99.90;;;;;;4998838;28;20551;-52
2021/08/16 00:19:16;;;;;;;8.97;7.57;;;18.60;99.90;;;;;;4999013;28;20511;-54
2021/08/16 00:21:46;;;;;;;9.30;6.97;;;18.60;99.90;;;;;;4999772;28;20505;-52
2021/08/16 00:24:13;;;;;;;8.63;7.83;;;18.50;99.90;;;;;;4998123;28;20491;-55
2021/08/16 00:26:40;;;;;;;10.03;8.00;;;18.60;99.90;;;;;;4998934;28;20547;-54
2021/08/16 00:29:07;;;;;;;9.47;8.40;;;18.60;99.90;;;;;;4998764;28;20938;-54
2021/08/16 00:31:37;;;;;;;8.17;7.37;;;18.60;99.90;;;;;;4999295;28;20496;-54
2021/08/16 00:34:04;;;;;;;9.20;7.40;;;18.60;99.90;;;;;;4998594;28;20535;-58
2021/08/16 00:36:31;;;;;;;11.33;7.37;;;18.60;99.90;;;;;;4998877;28;20500;-58
2021/08/16 00:38:57;;;;;;;9.40;6.20;;;18.50;99.90;;;;;;4998325;28;20470;-56
2021/08/16 00:41:25;;;;;;;9.40;6.77;;;18.50;99.90;;;;;;4998939;28;20483;-53
2021/08/16 00:43:53;;;;;;;8.50;6.50;;;18.50;99.90;;;;;;4996109;28;20488;-56
2021/08/16 00:46:22;;;;;;;7.87;5.43;;;18.40;99.90;;;;;;4979109;28;20512;-56
2021/08/16 00:48:51;;;;;;;6.23;4.70;;;18.30;99.90;;;;;;4998362;28;20469;-55
2021/08/16 00:51:18;;;;;;;5.03;4.47;;;18.20;99.90;;;;;;4998070;28;20918;-56
2021/08/16 00:53:45;;;;;;;6.63;4.30;;;18.10;99.90;;;;;;4998271;28;20804;-55
2021/08/16 00:56:16;;;;;;;4.47;3.83;;;17.90;99.90;;;;;;4998179;28;20551;-56
2021/08/16 00:58:43;;;;;;;5.50;4.07;;;17.80;99.90;;;;;;4998457;28;20464;-52
2021/08/16 01:01:10;;;;;;;5.50;4.23;;;17.80;99.90;;;;;;4998234;28;20925;-54
2021/08/16 01:03:37;;;;;;;5.90;4.60;;;17.80;99.90;;;;;;4998701;28;20507;-52
2021/08/16 01:06:05;;;;;;;4.23;3.87;;;17.80;99.90;;;;;;4997698;28;20519;-53
2021/08/16 01:08:35;;;;;;;6.00;4.37;;;17.80;99.90;;;;;;4998389;28;20906;-56
2021/08/16 01:11:02;;;;;;;5.03;3.60;;;17.70;99.90;;;;;;4998388;28;20465;-53
2021/08/16 01:13:29;;;;;;;5.57;4.50;;;17.70;99.90;;;;;;4998673;28;20473;-49
2021/08/16 01:15:59;;;;;;;7.13;4.17;;;17.60;99.90;;;;;;4997934;28;20533;-52
2021/08/16 01:18:28;;;;;;;7.63;3.90;;;17.60;99.90;;;;;;4998279;28;20559;-50
2021/08/16 01:20:56;;;;;;;7.43;3.60;;;17.40;99.90;;;;;;4997889;28;20438;-53
2021/08/16 01:23:24;;;;;;;10.27;4.03;;;17.40;99.90;;;;;;4998237;28;20496;-53
2021/08/16 01:25:51;;;;;;;6.70;3.23;;;17.40;99.90;;;;;;4998039;28;20905;-56
2021/08/16 01:28:21;;;;;;;9.33;4.80;;;17.30;99.90;;;;;;4998160;28;20522;-56
2021/08/16 01:30:52;;;;;;;4.03;3.37;;;17.20;99.90;;;;;;4997511;28;20555;-56
2021/08/16 01:33:19;;;;;;;7.73;4.00;;;17.10;99.90;;;;;;4997922;28;20465;-48
2021/08/16 01:35:46;;;;;;;12.87;3.80;;;16.90;99.90;;;;;;4997650;28;20926;-53
2021/08/16 01:38:13;;;;;;;14.00;4.00;;;16.80;99.90;;;;;;4998267;28;20880;-52
2021/08/16 01:40:40;;;;;;;5.73;3.90;;;16.70;99.90;;;;;;4997889;28;20515;-55
2021/08/16 01:43:07;;;;;;;7.63;4.27;;;16.50;99.90;;;;;;4997992;28;20523;-56
2021/08/16 01:45:36;;;;;;;9.40;3.73;;;16.40;99.90;;;;;;4982004;28;20458;-52
2021/08/16 01:48:03;;;;;;;5.07;3.73;;;16.30;99.90;;;;;;4978198;28;20510;-56
2021/08/16 01:50:33;;;;;;;5.93;3.33;;;16.30;99.90;;;;;;4978211;28;20532;-55
2021/08/16 01:53:00;;;;;;;6.80;4.20;;;16.20;99.90;;;;;;4978907;28;20900;-55
2021/08/16 01:55:27;;;;;;;5.80;3.03;;;16.10;99.90;;;;;;4978159;28;20541;-51
2021/08/16 01:57:54;;;;;;;10.00;4.20;;;16.20;99.90;;;;;;4977920;28;20482;-52
2021/08/16 02:00:21;;;;;;;9.87;3.70;;;16.30;99.90;;;;;;4977331;28;20556;-53
2021/08/16 02:02:49;;;;;;;7.33;4.60;;;16.30;99.90;;;;;;4979050;28;20450;-56
2021/08/16 02:05:18;;;;;;;6.37;4.27;;;16.30;99.90;;;;;;4982745;28;20467;-49
2021/08/16 02:07:45;;;;;;;7.20;4.33;;;16.30;99.90;;;;;;4982101;28;20905;-51
2021/08/16 02:10:13;;;;;;;5.73;3.80;;;16.30;99.90;;;;;;4981667;28;20462;-53
2021/08/16 02:12:40;;;;;;;10.23;4.57;;;16.30;99.90;;;;;;4982181;28;20480;-51
2021/08/16 02:15:09;;;;;;;5.63;3.13;;;16.40;99.90;;;;;;4982465;28;20864;-52
2021/08/16 02:17:39;;;;;;;10.33;4.40;;;16.30;99.90;;;;;;4982277;28;20493;-56
2021/08/16 02:20:09;;;;;;;7.50;3.80;;;16.30;99.90;;;;;;4981740;28;20505;-55
2021/08/16 02:22:37;;;;;;;5.20;3.60;;;16.30;99.90;;;;;;4981872;28;20526;-55
2021/08/16 02:25:04;;;;;;;6.50;4.00;;;16.40;99.90;;;;;;4982281;28;20496;-56
2021/08/16 02:27:33;;;;;;;8.17;4.10;;;16.30;99.90;;;;;;4982078;28;20902;-53
2021/08/16 02:30:04;;;;;;;9.67;4.30;;;16.30;99.90;;;;;;4981513;28;20564;-51
2021/08/16 02:32:31;;;;;;;5.07;3.87;;;16.30;99.90;;;;;;4981901;28;20887;-54
2021/08/16 02:34:58;;;;;;;10.50;4.10;;;16.30;99.90;;;;;;4981665;28;20537;-52
2021/08/16 02:37:26;;;;;;;7.03;4.13;;;16.20;99.90;;;;;;4982160;28;20544;-56
2021/08/16 02:39:53;;;;;;;8.37;4.70;;;16.30;99.90;;;;;;4981324;28;20501;-50
2021/08/16 02:42:20;;;;;;;8.03;4.77;;;16.20;99.90;;;;;;4983074;28;20534;-55
2021/08/16 02:44:47;;;;;;;7.13;4.13;;;16.20;99.90;;;;;;4991613;28;20458;-49
2021/08/16 02:47:16;;;;;;;7.90;4.40;;;16.30;99.90;;;;;;4981960;28;20508;-54
2021/08/16 02:49:43;;;;;;;8.17;4.67;;;16.20;99.90;;;;;;4982013;28;20496;-54
2021/08/16 02:52:12;;;;;;;7.17;4.23;;;16.20;99.90;;;;;;4981602;28;20501;-52
2021/08/16 02:54:42;;;;;;;7.67;4.77;;;16.30;99.90;;;;;;4981246;28;20535;-51
2021/08/16 02:57:12;;;;;;;7.90;4.77;;;16.20;99.90;;;;;;4981360;28;20497;-49
2021/08/16 02:59:39;;;;;;;6.23;4.57;;;16.10;99.90;;;;;;4981670;28;20461;-52
2021/08/16 03:02:06;;;;;;;9.03;4.50;;;16.10;99.90;;;;;;4980723;28;20465;-56
2021/08/16 03:04:34;;;;;;;9.40;4.40;;;16.10;99.90;;;;;;4980986;28;20477;-56
2021/08/16 03:07:01;;;;;;;7.97;4.77;;;16.20;99.90;;;;;;4980540;28;20498;-49
2021/08/16 03:09:28;;;;;;;8.60;5.43;;;16.20;99.90;;;;;;4981496;28;20564;-55
2021/08/16 03:11:57;;;;;;;11.43;5.53;;;16.10;99.90;;;;;;4980833;28;20470;-53
2021/08/16 03:14:25;;;;;;;11.37;4.87;;;16.10;99.90;;;;;;4980766;28;20512;-56
2021/08/16 03:16:52;;;;;;;8.50;5.63;;;16.00;99.90;;;;;;4980918;28;20476;-56
2021/08/16 03:19:19;;;;;;;11.47;4.53;;;15.90;99.90;;;;;;4981222;28;20891;-56
2021/08/16 03:21:46;;;;;;;12.50;5.20;;;16.00;99.90;;;;;;4980782;28;20462;-56
2021/08/16 03:24:13;;;;;;;8.33;4.90;;;15.90;99.90;;;;;;4980952;28;20468;-58
2021/08/16 03:26:40;;;;;;;10.00;5.40;;;15.90;99.90;;;;;;4980770;28;20524;-53
2021/08/16 03:29:08;;;;;;;8.20;5.07;;;15.80;99.90;;;;;;4981264;28;20883;-58
2021/08/16 03:31:36;;;;;;;11.70;5.53;;;15.80;99.90;;;;;;4981168;28;20524;-55
2021/08/16 03:34:03;;;;;;;10.10;5.10;;;15.90;99.90;;;;;;4980949;28;20811;-57
2021/08/16 03:36:31;;;;;;;8.83;4.80;;;15.80;99.90;;;;;;4979831;28;20680;-52
2021/08/16 03:38:58;;;;;;;14.07;6.03;;;15.80;99.90;;;;;;4979451;28;20476;-57
2021/08/16 03:41:25;;;;;;;5.83;4.70;;;15.80;99.90;;;;;;4979962;28;20504;-55
2021/08/16 03:43:52;;;;;;;9.60;5.63;;;15.80;99.90;;;;;;4991941;28;20488;-58
2021/08/16 03:46:21;;;;;;;12.03;6.30;;;15.80;99.90;;;;;;4979747;28;20540;-58
2021/08/16 03:48:48;;;;;;;8.17;5.57;;;15.80;99.90;;;;;;4980022;28;20518;-56
2021/08/16 03:51:15;;;;;;;13.53;6.33;;;15.80;99.90;;;;;;4980167;28;20501;-57
2021/08/16 03:53:42;;;;;;;8.50;5.23;;;15.80;99.90;;;;;;4980683;28;20939;-55
2021/08/16 03:56:10;;;;;;;13.47;5.90;;;15.80;99.90;;;;;;4980485;28;20506;-54
2021/08/16 03:58:38;;;;;;;15.40;6.17;;;15.80;99.90;;;;;;4979719;28;20462;-56
2021/08/16 04:01:05;;;;;;;12.10;6.00;;;15.80;99.90;;;;;;4979862;28;20930;-57
2021/08/16 04:03:33;;;;;;;7.50;5.90;;;15.80;99.90;;;;;;4994671;28;20461;-58
2021/08/16 04:06:00;;;;;;;6.90;5.30;;;15.70;99.90;;;;;;4985976;28;20791;-57
2021/08/16 04:08:27;;;;;;;7.80;5.47;;;15.70;99.90;;;;;;4979832;28;20553;-58
2021/08/16 04:10:54;;;;;;;8.87;6.23;;;15.70;99.90;;;;;;4979449;28;20462;-57
2021/08/16 04:13:21;;;;;;;10.17;6.37;;;15.70;99.90;;;;;;4998034;28;20555;-58
2021/08/16 04:15:49;;;;;;;10.90;5.87;;;15.70;99.90;;;;;;4987911;28;20563;-58
2021/08/16 04:18:19;;;;;;;9.27;5.40;;;15.70;99.90;;;;;;4979751;28;20502;-57
2021/08/16 04:20:47;;;;;;;9.50;6.53;;;15.60;99.90;;;;;;4979946;28;20569;-56
2021/08/16 04:23:14;;;;;;;11.57;7.33;;;15.60;99.90;;;;;;4980174;28;20524;-58
2021/08/16 04:25:41;;;;;;;15.23;6.57;;;15.60;99.90;;;;;;4978707;28;20557;-54
2021/08/16 04:28:08;;;;;;;8.83;6.50;;;15.60;99.90;;;;;;4979866;28;20735;-54
2021/08/16 04:30:35;;;;;;;10.80;6.37;;;15.60;99.90;;;;;;4979883;28;20486;-55
2021/08/16 04:33:02;;;;;;;10.50;6.93;;;15.60;99.90;;;;;;4979711;28;20480;-54
2021/08/16 04:35:29;;;;;;;10.40;6.80;;;15.60;99.90;;;;;;4979607;28;20496;-54
2021/08/16 04:37:57;;;;;;;11.07;6.20;;;15.60;99.90;;;;;;4979396;28;20501;-51
2021/08/16 04:40:24;;;;;;;9.10;6.30;;;15.70;99.90;;;;;;4979799;28;20524;-54
2021/08/16 04:42:51;;;;;;;10.40;6.10;;;15.70;99.90;;;;;;4985334;28;20468;-58
2021/08/16 04:45:18;;;;;;;10.37;6.50;;;15.70;99.90;;;;;;4985221;28;20541;-57
2021/08/16 04:47:46;;;;;;;12.27;6.87;;;15.60;99.90;;;;;;4979098;28;20509;-58
2021/08/16 04:50:14;;;;;;;10.53;6.77;;;15.70;99.90;;;;;;4979266;28;20466;-58
2021/08/16 04:52:41;;;;;;;12.47;6.17;;;15.70;99.90;;;;;;4979132;28;20538;-58
2021/08/16 04:55:13;;;;;;;9.87;7.23;;;15.70;99.90;;;;;;4978888;28;20508;-58
2021/08/16 04:57:41;;;;;;;13.30;7.37;;;15.70;99.90;;;;;;4979499;28;20535;-58
2021/08/16 05:00:10;;;;;;;11.70;7.60;;;15.70;99.90;;;;;;4978118;28;20465;-58
2021/08/16 05:02:48;;;;;;;10.30;6.83;;;15.70;99.90;;;;;;4978975;28;20466;-58
2021/08/16 05:42:08;;;;;;;12.07;8.50;;;15.80;99.90;;;;;;3166722;23;20492;-58
2021/08/16 05:44:35;;;;;;;13.67;8.10;;;15.80;99.90;;;;;;4985833;28;20493;-58
2021/08/16 05:47:05;;;;;;;12.33;8.90;;;15.80;99.90;;;;;;4997930;28;20544;-58
2021/08/16 05:49:32;;;;;;;10.03;8.00;;;15.80;99.90;;;;;;4998138;28;20536;-54
2021/08/16 05:51:59;;;;;;;10.53;9.00;;;15.80;99.90;;;;;;4997733;28;20465;-58
2021/08/16 05:54:26;;;;;;;15.97;9.47;;;15.90;99.90;;;;;;4997611;28;20709;-58
2021/08/16 05:56:53;;;;;;;14.90;9.83;;;15.90;99.90;;;;;;4994746;28;20489;-57
2021/08/16 05:59:24;;;;;;;23.73;10.70;;;15.80;99.90;;;;;;4986733;28;20564;-59
2021/08/16 06:01:51;;;;;;;18.60;10.77;;;15.90;99.90;;;;;;4988183;28;20555;-59
2021/08/16 06:04:18;;;;;;;15.27;9.90;;;15.90;99.90;;;;;;4997394;28;20596;-58
2021/08/16 06:06:48;;;;;;;16.63;10.83;;;16.00;99.90;;;;;;4982391;28;20464;-58
2021/08/16 06:09:15;;;;;;;17.20;9.80;;;15.90;99.90;;;;;;4978718;28;20456;-58
2021/08/16 06:11:42;;;;;;;17.47;11.13;;;15.90;99.90;;;;;;4980022;28;20572;-59
2021/08/16 06:14:12;;;;;;;13.93;8.97;;;15.80;99.90;;;;;;4990238;28;20933;-55
2021/08/16 06:16:43;;;;;;;19.40;9.30;;;15.90;99.90;;;;;;4976476;28;20480;-55
2021/08/16 06:19:10;;;;;;;14.90;10.60;;;15.90;99.90;;;;;;4977905;28;20465;-54
2021/08/16 06:21:41;;;;;;;13.20;10.83;;;16.00;99.90;;;;;;4977726;28;20534;-59
2021/08/16 06:24:08;;;;;;;12.50;9.97;;;16.00;99.90;;;;;;4977801;28;20568;-54
2021/08/16 06:26:34;;;;;;;12.10;9.37;;;15.90;99.90;;;;;;4977760;28;20494;-59
2021/08/16 06:29:01;;;;;;;12.77;9.70;;;16.00;99.90;;;;;;4978143;28;20493;-56
2021/08/16 06:31:29;;;;;;;10.47;8.87;;;16.10;99.90;;;;;;4978203;28;20489;-57
2021/08/16 06:34:00;;;;;;;13.07;9.73;;;16.00;99.90;;;;;;4977816;28;20465;-58
2021/08/16 06:36:27;;;;;;;12.10;8.63;;;16.00;99.90;;;;;;4977547;28;20501;-56
2021/08/16 06:38:57;;;;;;;11.40;9.13;;;16.00;99.90;;;;;;4978277;28;20501;-59
2021/08/16 06:41:24;;;;;;;10.30;8.67;;;16.10;99.90;;;;;;4977765;28;20497;-56
2021/08/16 06:43:51;;;;;;;15.33;9.33;;;16.00;99.90;;;;;;4989721;28;20552;-58
2021/08/16 06:46:18;;;;;;;9.30;8.30;;;16.00;99.90;;;;;;4977459;28;20462;-59
2021/08/16 06:48:45;;;;;;;8.90;7.73;;;16.10;99.90;;;;;;4978030;28;20539;-57
2021/08/16 06:51:13;;;;;;;12.80;8.60;;;16.20;99.90;;;;;;4981494;28;20469;-59
2021/08/16 06:53:43;;;;;;;9.50;8.17;;;16.30;99.90;;;;;;4981531;28;20556;-59
2021/08/16 06:56:10;;;;;;;10.97;8.37;;;16.20;99.90;;;;;;4981101;28;20569;-57
2021/08/16 06:58:40;;;;;;;12.47;9.00;;;16.20;99.90;;;;;;4981533;28;20491;-59
2021/08/16 07:01:07;;;;;;;15.30;10.13;;;16.20;99.90;;;;;;4981181;28;20469;-58
2021/08/16 07:40:30;;;;;;;13.13;6.70;;;17.20;99.90;;;;;;2728114;23;20488;-59
2021/08/16 07:42:57;;;;;;;9.70;6.13;;;17.00;99.90;;;;;;4999628;28;20500;-57
2021/08/16 07:45:23;;;;;;;8.37;6.63;;;17.10;99.90;;;;;;4985321;28;20922;-59
2021/08/16 07:47:53;;;;;;;11.40;7.23;;;17.10;99.90;;;;;;4980273;28;20461;-59
2021/08/16 07:50:21;;;;;;;10.40;6.40;;;17.20;99.90;;;;;;4986384;28;20465;-59
2021/08/16 07:52:48;;;;;;;6.83;5.73;;;17.20;99.90;;;;;;4998872;28;20568;-59
2021/08/16 07:55:15;;;;;;;10.30;6.30;;;17.20;99.90;;;;;;4999418;28;20473;-59
2021/08/16 07:57:43;;;;;;;7.57;5.90;;;17.20;99.90;;;;;;4998856;28;20471;-59
2021/08/16 08:00:13;;;;;;;9.17;6.60;;;17.30;99.90;;;;;;4996833;28;20476;-59
2021/08/16 08:02:42;;;;;;;11.80;6.30;;;17.40;99.90;;;;;;4989681;28;20465;-59
2021/08/16 08:05:11;;;;;;;6.90;5.90;;;17.60;99.90;;;;;;4990623;28;20560;-59
2021/08/16 08:07:39;;;;;;;9.03;5.63;;;17.80;99.90;;;;;;4997232;28;20746;-59
2021/08/16 08:10:09;;;;;;;9.53;5.63;;;17.80;99.90;;;;;;4998459;28;20832;-59
2021/08/16 08:12:36;;;;;;;8.13;6.70;;;17.60;99.90;;;;;;4997960;28;20504;-59
2021/08/16 08:15:07;;;;;;;9.60;5.40;;;17.60;99.90;;;;;;4996642;28;20552;-58
2021/08/16 08:17:37;;;;;;;10.27;6.30;;;17.60;99.90;;;;;;4989089;28;20576;-58
2021/08/16 08:20:10;;;;;;;8.37;6.53;;;17.40;99.90;;;;;;4991471;28;20444;-58
2021/08/16 08:22:37;;;;;;;11.50;5.73;;;17.30;99.90;;;;;;4997987;28;20503;-56
2021/08/16 08:25:05;;;;;;;13.03;6.87;;;17.10;99.90;;;;;;4994279;28;20443;-58
2021/08/16 08:27:35;;;;;;;10.07;5.60;;;17.30;99.90;;;;;;4997967;28;20468;-58
2021/08/16 08:30:03;;;;;;;7.07;5.50;;;17.50;99.90;;;;;;4995133;28;20519;-54
2021/08/16 08:32:31;;;;;;;11.87;6.00;;;17.70;99.90;;;;;;4997763;28;20822;-57
2021/08/16 08:34:58;;;;;;;10.83;5.10;;;18.00;99.90;;;;;;4996554;28;20473;-59
2021/08/16 08:37:25;;;;;;;6.17;4.90;;;18.00;99.90;;;;;;4992985;28;20588;-58
2021/08/16 08:39:54;;;;;;;8.13;4.67;;;18.30;99.90;;;;;;4983335;28;20559;-58
2021/08/16 08:42:24;;;;;;;6.20;4.83;;;18.40;99.90;;;;;;4997620;28;20872;-58
2021/08/16 08:44:51;;;;;;;10.33;4.73;;;18.30;99.90;;;;;;4992155;28;20596;-58
2021/08/16 08:47:18;;;;;;;8.00;5.07;;;18.60;99.90;;;;;;4997869;28;20471;-58
2021/08/16 08:49:46;;;;;;;8.00;4.97;;;18.70;99.90;;;;;;4998945;28;20500;-58
2021/08/16 08:52:14;;;;;;;7.87;4.90;;;18.90;99.90;;;;;;4998748;28;20472;-57
2021/08/16 08:54:41;;;;;;;13.97;6.00;;;19.50;99.90;;;;;;4998779;28;20726;-58
2021/08/16 08:57:20;;;;;;;7.87;5.37;;;19.60;99.90;;;;;;4998397;28;20496;-57
2021/08/16 08:59:47;;;;;;;10.13;5.03;;;19.30;99.90;;;;;;4998627;28;20559;-59
2021/08/16 09:02:17;;;;;;;8.43;4.80;;;18.90;99.90;;;;;;4998587;28;20465;-58
2021/08/16 09:04:53;;;;;;;6.30;5.17;;;19.00;99.90;;;;;;4998292;28;20497;-58
2021/08/16 09:07:31;;;;;;;7.60;5.10;;;19.30;99.90;;;;;;4998562;28;20547;-58
2021/08/16 09:09:58;;;;;;;11.83;4.50;;;19.50;99.90;;;;;;4998466;28;20473;-58
2021/08/16 09:12:30;;;;;;;10.63;4.97;;;19.60;99.90;;;;;;4998016;28;20936;-58
2021/08/16 09:14:57;;;;;;;6.87;4.40;;;19.30;99.90;;;;;;4997940;28;20552;-58
2021/08/16 09:17:29;;;;;;;5.60;4.03;;;18.90;99.90;;;;;;4997832;28;20600;-58
2021/08/16 09:19:57;;;;;;;6.43;4.40;;;19.00;99.90;;;;;;4981814;28;20482;-58
2021/08/16 09:22:33;;;;;;;7.70;4.60;;;19.00;99.90;;;;;;4978162;28;20436;-58
2021/08/16 09:25:04;;;;;;;4.80;4.30;;;19.00;99.90;;;;;;4978861;28;20523;-57
2021/08/16 09:27:31;;;;;;;8.47;4.80;;;19.00;99.90;;;;;;4984854;28;20446;-58
2021/08/16 09:29:58;;;;;;;6.70;4.53;;;19.60;99.90;;;;;;4997995;28;20511;-56
2021/08/16 09:32:33;;;;;;;5.60;4.20;;;20.20;99.90;;;;;;4997691;28;20519;-55
2021/08/16 09:35:07;;;;;;;7.10;4.70;;;20.30;99.90;;;;;;4997817;28;20485;-57
2021/08/16 09:37:35;;;;;;;8.17;5.27;;;19.90;99.90;;;;;;4978507;28;20500;-58
2021/08/16 09:40:05;;;;;;;7.13;4.13;;;19.70;99.90;;;;;;4978413;28;20441;-57
2021/08/16 09:42:50;;;;;;;7.63;4.20;;;20.00;99.90;;;;;;4978713;28;20497;-54
2021/08/16 10:19:45;;;;;;;7.90;4.60;;;20.90;99.90;;;;;;5348037;23;20456;-56
2021/08/16 10:22:12;;;;;;;6.97;4.03;;;21.20;99.90;;;;;;5017059;28;20699;-57
2021/08/16 10:24:39;;;;;;;9.33;4.73;;;21.00;99.90;;;;;;5018845;28;20499;-57
2021/08/16 11:39:43;;;;;;;5.57;4.97;;;16.10;99.90;;;;;;2953357;23;20496;-60
2021/08/16 11:42:10;;;;;;;6.47;5.27;;;16.10;99.90;;;;;;4979146;28;20492;-62
2021/08/16 11:44:37;;;;;;;5.43;4.67;;;16.10;99.90;;;;;;4979312;28;20473;-62
2021/08/16 11:47:06;;;;;;;5.60;5.10;;;16.00;99.90;;;;;;4979950;28;20461;-62
2021/08/16 12:23:56;;;;;;;11.40;10.30;;;16.10;99.90;;;;;;2832129;23;20418;-62
2021/08/16 13:37:55;;;;;;;15.30;11.63;;;15.50;99.90;;;;;;4275821;23;20454;-66
2021/08/16 13:40:24;;;;;;;15.20;11.83;;;15.50;99.90;;;;;;4998032;28;20608;-65
2021/08/16 14:22:15;;;;;;;16.97;11.90;;;15.90;99.90;;;;;;4999345;28;20468;-65
2021/08/16 14:24:42;;;;;;;16.53;11.50;;;16.00;99.90;;;;;;5001158;28;20499;-65
2021/08/16 14:27:09;;;;;;;15.80;10.80;;;16.00;99.90;;;;;;5000676;28;20457;-65
2021/08/16 14:29:36;;;;;;;13.70;9.63;;;16.10;99.90;;;;;;5001098;28;20472;-65
2021/08/16 14:32:03;;;;;;;17.00;10.80;;;16.10;99.90;;;;;;5001138;28;20807;-65
2021/08/16 14:34:30;;;;;;;16.30;11.23;;;16.10;99.90;;;;;;5001605;28;20497;-65
2021/08/16 14:36:57;;;;;;;14.03;9.40;;;16.20;99.90;;;;;;5000865;28;20513;-65
2021/08/16 14:39:26;;;;;;;13.17;9.40;;;16.10;99.90;;;;;;5000955;28;20850;-65
2021/08/16 14:41:53;;;;;;;11.27;8.93;;;16.10;99.90;;;;;;5001068;28;20496;-64
2021/08/16 15:21:14;;;;;;;10.13;5.53;;;14.20;99.90;;;;;;3661756;23;20492;-66
2021/08/16 15:23:43;;;;;;;10.80;5.90;;;14.40;99.90;;;;;;5000385;28;20976;-66
2021/08/16 15:26:10;;;;;;;8.20;5.57;;;14.60;99.90;;;;;;5000255;28;20567;-66
2021/08/16 15:28:37;;;;;;;7.63;5.07;;;14.60;99.90;;;;;;5000043;28;20885;-66
2021/08/16 16:42:40;;;;;;;11.07;5.83;;;13.80;99.90;;;;;;4284750;23;20488;-66
2021/08/16 16:45:07;;;;;;;11.47;6.17;;;13.80;99.90;;;;;;4985939;28;20496;-66
2021/08/16 16:47:40;;;;;;;10.90;7.07;;;13.60;99.90;;;;;;4989017;28;20461;-65
2021/08/16 16:50:08;;;;;;;12.60;7.03;;;13.50;99.90;;;;;;4982642;28;20468;-65
2021/08/16 16:52:35;;;;;;;11.77;6.40;;;13.50;99.90;;;;;;4985768;28;20455;-65
2021/08/16 16:55:06;;;;;;;11.97;6.97;;;13.60;99.90;;;;;;4987458;28;20462;-65
2021/08/16 16:57:33;;;;;;;15.67;7.23;;;13.60;99.90;;;;;;4988476;28;20513;-65
2021/08/16 17:00:05;;;;;;;9.70;6.67;;;13.60;99.90;;;;;;4992196;28;20489;-65
2021/08/16 17:02:37;;;;;;;12.10;5.87;;;13.60;99.90;;;;;;4985435;28;20457;-65
2021/08/16 17:43:04;;;;;;;10.67;7.83;;;14.30;99.90;;;;;;4737338;23;20513;-62
2021/08/16 17:45:31;;;;;;;13.90;6.97;;;14.30;99.90;;;;;;4987201;28;20470;-62
2021/08/16 17:47:58;;;;;;;12.90;6.90;;;14.10;99.90;;;;;;4987877;28;20794;-62
2021/08/16 17:50:28;;;;;;;16.40;7.80;;;14.20;99.90;;;;;;4987073;28;20483;-62
2021/08/16 17:52:56;;;;;;;12.27;7.60;;;14.10;99.90;;;;;;4981750;28;20827;-62
2021/08/16 17:55:23;;;;;;;11.53;7.40;;;14.10;99.90;;;;;;4983291;28;20498;-62
2021/08/16 17:57:52;;;;;;;9.73;6.80;;;14.10;99.90;;;;;;4982997;28;20516;-62
2021/08/16 18:00:27;;;;;;;13.10;7.43;;;14.10;99.90;;;;;;4986273;28;20493;-62
2021/08/16 18:02:53;;;;;;;16.53;7.97;;;14.10;99.90;;;;;;4985695;28;20833;-62
2021/08/16 18:05:20;;;;;;;16.23;7.77;;;13.90;99.90;;;;;;4985021;28;20556;-63
2021/08/16 18:07:49;;;;;;;12.83;6.50;;;13.80;99.90;;;;;;4988771;28;20826;-62
2021/08/16 18:10:22;;;;;;;10.87;5.83;;;13.70;99.90;;;;;;4997560;28;20469;-63
2021/08/16 18:12:51;;;;;;;16.47;6.43;;;13.70;99.90;;;;;;4990245;28;20515;-62
2021/08/16 18:15:18;;;;;;;8.70;6.33;;;13.60;99.90;;;;;;4982666;28;20505;-63
2021/08/16 18:17:47;;;;;;;10.30;7.20;;;13.60;99.90;;;;;;4992387;28;20456;-62
2021/08/16 18:20:14;;;;;;;13.73;6.63;;;13.60;99.90;;;;;;4990993;28;20497;-62
2021/08/16 18:22:42;;;;;;;12.23;7.00;;;13.60;99.90;;;;;;4986354;28;20458;-62
2021/08/16 18:25:09;;;;;;;12.20;7.33;;;13.50;99.90;;;;;;4987176;28;20476;-62
2021/08/16 18:27:43;;;;;;;11.47;6.60;;;13.50;99.90;;;;;;4977607;28;20489;-62
2021/08/16 18:30:15;;;;;;;15.40;6.57;;;13.40;99.90;;;;;;4984330;28;20492;-62
2021/08/16 18:32:47;;;;;;;13.53;6.87;;;13.40;99.90;;;;;;4987639;28;20472;-62
2021/08/16 18:35:16;;;;;;;12.10;6.33;;;13.50;99.90;;;;;;4994774;28;20465;-63
2021/08/16 18:37:43;;;;;;;11.07;6.47;;;13.40;99.90;;;;;;4988266;28;20462;-63
2021/08/16 18:40:12;;;;;;;10.20;6.33;;;13.30;99.90;;;;;;4982346;28;20493;-62
2021/08/16 18:42:40;;;;;;;12.67;5.97;;;13.40;99.90;;;;;;4985298;28;21071;-62
2021/08/16 18:45:13;;;;;;;11.60;6.20;;;13.40;99.90;;;;;;4990043;28;20497;-62
2021/08/16 18:47:40;;;;;;;12.60;7.23;;;13.40;99.90;;;;;;4998878;28;20927;-62
2021/08/16 18:50:09;;;;;;;13.60;6.80;;;13.40;99.90;;;;;;4995502;28;20453;-62
2021/08/16 18:52:40;;;;;;;12.90;6.43;;;13.40;99.90;;;;;;4986047;28;20501;-62
2021/08/16 19:30:01;;;;;;;11.20;7.37;;;12.80;99.90;;;;;;2417316;23;20948;-64
2021/08/16 19:32:28;;;;;;;16.40;7.60;;;12.80;99.90;;;;;;4995987;28;20454;-64
2021/08/16 19:34:55;;;;;;;11.20;8.10;;;12.80;99.90;;;;;;4994325;28;20464;-64
2021/08/16 19:37:22;;;;;;;11.60;7.13;;;12.90;99.90;;;;;;4989147;28;20811;-65
2021/08/16 19:39:49;;;;;;;14.33;7.30;;;12.90;99.90;;;;;;4985709;28;20435;-64
2021/08/16 19:42:17;;;;;;;17.73;8.70;;;12.80;99.90;;;;;;4990910;28;20526;-64
2021/08/16 19:44:44;;;;;;;12.77;7.37;;;12.80;99.90;;;;;;4988630;28;20469;-64
2021/08/16 19:47:12;;;;;;;19.67;8.40;;;12.80;99.90;;;;;;4993882;28;20564;-64
2021/08/16 19:49:39;;;;;;;13.13;7.97;;;12.90;99.90;;;;;;5000214;28;20925;-64
2021/08/16 19:52:07;;;;;;;12.40;7.20;;;12.80;99.90;;;;;;4996625;28;20489;-64
2021/08/16 19:54:35;;;;;;;15.33;9.20;;;12.80;99.90;;;;;;4992491;28;20564;-64
2021/08/16 19:57:03;;;;;;;13.60;8.90;;;12.80;99.90;;;;;;4998795;28;20530;-64
2021/08/16 19:59:30;;;;;;;15.43;7.40;;;12.70;99.90;;;;;;4999273;28;20878;-64
2021/08/16 20:02:00;;;;;;;14.57;8.50;;;12.70;99.90;;;;;;4999034;28;20533;-64
2021/08/16 20:04:29;;;;;;;12.80;7.40;;;12.70;99.90;;;;;;4998881;28;20469;-64
2021/08/16 20:06:58;;;;;;;17.87;8.17;;;12.70;99.90;;;;;;4989493;28;20552;-63
2021/08/16 20:09:30;;;;;;;14.80;8.17;;;12.70;99.90;;;;;;4999008;28;20501;-63
2021/08/16 20:11:57;;;;;;;11.47;6.70;;;12.70;99.90;;;;;;4996087;28;20473;-63
2021/08/16 20:14:24;;;;;;;19.70;8.30;;;12.60;99.90;;;;;;4999349;28;20534;-63
2021/08/16 20:16:54;;;;;;;15.93;7.37;;;12.60;99.90;;;;;;4998154;28;20552;-63
2021/08/16 20:19:24;;;;;;;9.60;6.57;;;12.60;99.90;;;;;;4989911;28;20457;-63
2021/08/16 20:21:52;;;;;;;17.17;7.43;;;12.60;99.90;;;;;;4996721;28;20802;-63
2021/08/16 20:24:20;;;;;;;12.47;7.20;;;12.60;99.90;;;;;;4996026;28;20465;-63
2021/08/16 20:26:49;;;;;;;14.70;8.10;;;12.50;99.90;;;;;;4997684;28;20494;-63
2021/08/16 20:29:19;;;;;;;15.13;6.70;;;12.50;99.90;;;;;;4998407;28;20802;-63
2021/08/16 20:31:46;;;;;;;9.23;7.20;;;12.50;99.90;;;;;;4991544;28;20465;-64
2021/08/16 20:34:13;;;;;;;13.03;6.73;;;12.50;99.90;;;;;;4987122;28;20847;-64
2021/08/16 20:36:44;;;;;;;16.50;8.57;;;12.40;99.90;;;;;;4986017;28;20568;-64
2021/08/16 20:39:12;;;;;;;11.77;6.37;;;12.40;99.90;;;;;;4988928;28;20532;-63
2021/08/16 20:41:39;;;;;;;14.57;6.93;;;12.40;99.90;;;;;;4991206;28;20493;-64
2021/08/16 20:44:06;;;;;;;15.53;6.20;;;12.40;99.90;;;;;;4986263;28;20467;-63
2021/08/16 20:46:38;;;;;;;14.17;6.47;;;12.40;99.90;;;;;;4984181;28;20941;-63
2021/08/16 20:49:08;;;;;;;14.80;7.77;;;12.40;99.90;;;;;;4995739;28;20478;-63
2021/08/16 20:51:35;;;;;;;15.77;6.53;;;12.30;99.90;;;;;;4997497;28;20515;-64
2021/08/16 20:54:05;;;;;;;13.10;7.00;;;12.30;99.90;;;;;;4991291;28;20470;-63
2021/08/16 20:56:35;;;;;;;7.90;6.40;;;12.20;99.90;;;;;;4988164;28;20469;-63
2021/08/16 20:59:02;;;;;;;16.30;6.80;;;12.30;99.90;;;;;;4989933;28;20906;-63
2021/08/16 21:01:30;;;;;;;11.63;5.20;;;12.20;99.90;;;;;;4993035;28;20470;-63
2021/08/16 21:03:57;;;;;;;10.07;6.47;;;12.20;99.90;;;;;;4982896;28;20931;-64
2021/08/16 21:06:27;;;;;;;11.30;6.50;;;12.20;99.90;;;;;;4983545;28;20457;-63
2021/08/16 21:08:55;;;;;;;13.50;5.80;;;12.20;99.90;;;;;;4989569;28;20504;-63
2021/08/16 21:11:25;;;;;;;15.30;7.27;;;12.10;99.90;;;;;;4995069;28;20966;-63
2021/08/16 21:13:53;;;;;;;11.37;6.37;;;12.10;99.90;;;;;;4986924;28;20503;-63